createdAt,value
2022-08-07T00:02:35.887Z,13
2022-08-07T00:12:04.283Z,13
2022-08-07T00:52:06.996Z,12.6
2022-08-07T01:02:09.135Z,12.3
2022-08-07T01:12:24.137Z,12.1
2022-08-07T01:32:12.401Z,12
2022-08-07T01:42:37.324Z,12
2022-08-07T01:52:10.530Z,12
2022-08-07T02:02:11.283Z,11.9
2022-08-07T02:32:13.753Z,11.5
2022-08-07T02:42:16.191Z,11.4
2022-08-07T02:52:15.456Z,11.4
2022-08-07T03:02:16.595Z,11.3
2022-08-07T03:42:18.473Z,11
2022-08-07T04:02:19.515Z,10.9
2022-08-07T04:12:26.029Z,10.9
2022-08-07T04:22:22.906Z,10.9
2022-08-07T04:32:27.356Z,11
2022-08-07T04:42:22.804Z,11.1
2022-08-07T04:52:25.099Z,11.7
2022-08-07T05:02:24.619Z,12.5
2022-08-07T05:12:26.593Z,13.4
2022-08-07T05:22:26.849Z,13.9
2022-08-07T05:32:26.902Z,14.3
2022-08-07T05:42:33.480Z,14.6
2022-08-07T05:52:29.975Z,14.7
2022-08-07T06:02:28.578Z,15.2
2022-08-07T06:12:31.958Z,15.5
2022-08-07T06:22:28.622Z,16
2022-08-07T06:32:29.525Z,16.2
2022-08-07T06:42:32.918Z,16.8
2022-08-07T06:52:31.096Z,17.2
2022-08-07T07:02:49.345Z,17.7
2022-08-07T07:12:31.592Z,18.1
2022-08-07T07:22:36.470Z,18.5
2022-08-07T07:32:32.588Z,19.2
2022-08-07T07:42:33.666Z,19.5
2022-08-07T07:52:34.029Z,19.8
2022-08-07T08:12:51.435Z,20.9
2022-08-07T08:22:35.456Z,21
2022-08-07T08:32:38.746Z,21.4
2022-08-07T08:42:36.305Z,22.1
2022-08-07T09:02:37.470Z,22.5
2022-08-07T09:32:38.225Z,22.9
2022-08-07T09:42:38.934Z,23
2022-08-07T09:52:38.894Z,23.4
2022-08-07T10:02:39.627Z,23.7
2022-08-07T10:12:40.576Z,24.1
2022-08-07T11:22:46.064Z,24.4
2022-08-07T11:42:45.396Z,24.8
2022-08-07T11:52:46.030Z,24.6
2022-08-07T12:02:49.766Z,24.8
2022-08-07T12:22:56.637Z,25
2022-08-07T12:32:48.557Z,25.4
2022-08-07T13:12:51.658Z,26
2022-08-07T13:42:53.558Z,26.1
2022-08-07T13:52:54.527Z,26.1
2022-08-07T14:22:56.021Z,25.6
2022-08-07T14:32:56.011Z,25.9
2022-08-07T14:43:00.723Z,25.7
2022-08-07T15:12:58.666Z,26.4
2022-08-07T16:03:02.271Z,25.6
2022-08-07T16:23:05.162Z,24.6
2022-08-07T16:43:03.893Z,24.3
2022-08-07T17:13:05.585Z,24.2
2022-08-07T17:23:08.523Z,24
2022-08-07T17:33:39.322Z,23.9
2022-08-07T17:43:15.186Z,23.6
2022-08-07T17:53:23.520Z,23.4
2022-08-07T18:03:17.831Z,23.3
2022-08-07T18:23:21.940Z,23.2
2022-08-07T18:33:17.258Z,23
2022-08-07T18:43:18.060Z,22.8
2022-08-07T19:43:43.329Z,20.9
2022-08-07T20:03:34.264Z,20.1
2022-08-07T20:13:26.871Z,19.9
2022-08-07T20:33:36.527Z,19.4
2022-08-07T20:43:25.934Z,19.2
2022-08-07T20:54:02.760Z,19.1
2022-08-07T21:03:27.060Z,18.9
2022-08-07T21:13:44.134Z,18.9
2022-08-07T21:43:36.584Z,18.3
2022-08-07T21:53:29.946Z,18
2022-08-07T22:03:31.946Z,17.9
2022-08-07T22:13:50.789Z,17.7
2022-08-07T22:23:31.854Z,17.6
2022-08-07T22:33:37.145Z,17.4
2022-08-07T22:43:34.022Z,17.2
2022-08-07T23:13:49.364Z,16.9
2022-08-07T23:24:04.813Z,16.9
2022-08-07T23:43:37.735Z,16.4
2022-08-07T23:53:45.909Z,16.2
